createdAt,value
2018-07-24T00:00:15.275Z,20.88
2018-07-24T00:01:15.275Z,20.88
2018-07-24T00:02:15.279Z,20.87
2018-07-24T00:03:15.287Z,20.85
2018-07-24T00:04:15.290Z,20.80
2018-07-24T00:05:15.286Z,20.75
2018-07-24T00:06:15.288Z,20.75
2018-07-24T00:07:15.293Z,20.75
2018-07-24T00:08:15.300Z,20.78
2018-07-24T00:09:15.298Z,20.75
2018-07-24T00:10:15.337Z,20.72
2018-07-24T00:11:15.306Z,20.70
2018-07-24T00:12:15.310Z,20.63
2018-07-24T00:13:15.312Z,20.62
2018-07-24T00:14:15.313Z,20.62
2018-07-24T00:15:15.326Z,20.59
2018-07-24T00:16:15.321Z,20.59
2018-07-24T00:17:15.322Z,20.59
2018-07-24T00:18:15.324Z,20.55
2018-07-24T00:19:15.327Z,20.47
2018-07-24T00:20:15.331Z,20.44
2018-07-24T00:21:15.331Z,20.48
2018-07-24T00:22:15.338Z,20.47
2018-07-24T00:23:15.339Z,20.41
2018-07-24T00:24:15.342Z,20.50
2018-07-24T00:25:15.345Z,20.44
2018-07-24T00:26:15.349Z,20.43
2018-07-24T00:27:15.348Z,20.41
2018-07-24T00:28:15.351Z,20.47
2018-07-24T00:29:15.354Z,20.31
2018-07-24T00:30:15.361Z,20.32
2018-07-24T00:31:15.361Z,20.31
2018-07-24T00:32:15.431Z,20.39
2018-07-24T00:33:15.367Z,20.28
2018-07-24T00:34:15.368Z,20.29
2018-07-24T00:35:15.372Z,20.21
2018-07-24T00:36:15.373Z,20.22
2018-07-24T00:37:15.375Z,20.19
2018-07-24T00:38:15.377Z,20.18
2018-07-24T00:39:15.380Z,20.22
2018-07-24T00:40:15.386Z,20.22
2018-07-24T00:41:15.405Z,20.19
2018-07-24T00:42:15.391Z,20.18
2018-07-24T00:43:15.400Z,20.13
2018-07-24T00:44:15.398Z,20.10
2018-07-24T00:45:15.396Z,20.09
2018-07-24T00:46:15.399Z,20.11
2018-07-24T00:47:15.404Z,20.04
2018-07-24T00:48:15.403Z,20.00
2018-07-24T00:49:15.412Z,20.10
2018-07-24T00:50:15.420Z,20.02
2018-07-24T00:51:15.413Z,20.00
2018-07-24T00:52:15.417Z,20.03
2018-07-24T00:53:15.415Z,20.00
2018-07-24T00:54:15.447Z,19.95
2018-07-24T00:55:15.420Z,19.94
2018-07-24T00:56:15.424Z,20.04
2018-07-24T00:57:15.429Z,19.92
2018-07-24T00:58:15.427Z,19.96
2018-07-24T00:59:15.429Z,19.84
2018-07-24T01:00:15.438Z,19.89
2018-07-24T01:01:15.435Z,19.86
2018-07-24T01:02:15.440Z,19.79
2018-07-24T01:03:15.439Z,19.81
2018-07-24T01:04:15.443Z,19.79
2018-07-24T01:05:15.445Z,19.82
2018-07-24T01:06:15.446Z,19.81
2018-07-24T01:07:15.450Z,19.81
2018-07-24T01:08:15.462Z,19.84
2018-07-24T01:09:15.454Z,19.73
2018-07-24T01:10:15.460Z,19.81
2018-07-24T01:11:15.462Z,19.77
2018-07-24T01:12:15.461Z,19.71
2018-07-24T01:13:15.463Z,19.71
2018-07-24T01:14:15.464Z,19.70
2018-07-24T01:15:15.473Z,19.73
2018-07-24T01:16:15.470Z,19.64
2018-07-24T01:17:15.471Z,19.64
2018-07-24T01:18:15.473Z,19.70
2018-07-24T01:19:15.479Z,19.67
2018-07-24T01:20:15.482Z,19.55
2018-07-24T01:21:15.480Z,19.69
2018-07-24T01:22:15.482Z,19.63
2018-07-24T01:23:15.485Z,19.59
2018-07-24T01:24:15.517Z,19.56
2018-07-24T01:25:15.488Z,19.55
2018-07-24T01:26:15.494Z,19.56
2018-07-24T01:27:15.502Z,19.56
2018-07-24T01:28:15.496Z,19.59
2018-07-24T01:29:15.511Z,19.64
2018-07-24T01:30:15.498Z,19.55
2018-07-24T01:31:15.501Z,19.49
2018-07-24T01:32:15.507Z,19.48
2018-07-24T01:33:15.506Z,19.56
2018-07-24T01:34:15.508Z,19.51
2018-07-24T01:35:15.513Z,19.56
2018-07-24T01:36:15.515Z,19.49
2018-07-24T01:37:15.516Z,19.49
2018-07-24T01:38:15.518Z,19.44
2018-07-24T01:39:15.518Z,19.47
2018-07-24T01:40:15.521Z,19.47
2018-07-24T01:41:15.536Z,19.36
2018-07-24T01:42:15.525Z,19.34
2018-07-24T01:43:15.527Z,19.36
2018-07-24T01:44:15.533Z,19.36
2018-07-24T01:45:15.541Z,19.37
2018-07-24T01:46:15.541Z,19.34
2018-07-24T01:47:15.537Z,19.34
2018-07-24T01:48:15.538Z,19.34
2018-07-24T01:49:15.562Z,19.37
2018-07-24T01:50:15.541Z,19.33
2018-07-24T01:51:15.544Z,19.30
2018-07-24T01:52:15.551Z,19.27
2018-07-24T01:53:15.548Z,19.33
2018-07-24T01:54:15.550Z,19.30
2018-07-24T01:55:15.552Z,19.21
2018-07-24T01:56:15.554Z,19.19
2018-07-24T01:57:15.558Z,19.11
2018-07-24T01:58:15.557Z,19.22
2018-07-24T01:59:15.559Z,19.14
2018-07-24T02:00:15.562Z,19.11
2018-07-24T02:01:15.562Z,19.14
2018-07-24T02:02:15.565Z,19.08
2018-07-24T02:03:15.571Z,19.15
2018-07-24T02:04:15.572Z,19.18
2018-07-24T02:05:15.580Z,19.19
2018-07-24T02:06:15.573Z,19.15
2018-07-24T02:07:15.575Z,19.15
2018-07-24T02:08:15.578Z,19.11
2018-07-24T02:09:15.581Z,19.11
2018-07-24T02:10:15.581Z,18.99
2018-07-24T02:11:15.582Z,19.09
2018-07-24T02:12:15.592Z,19.14
2018-07-24T02:13:15.586Z,19.14
2018-07-24T02:14:15.588Z,19.00
2018-07-24T02:15:15.591Z,19.07
2018-07-24T02:16:15.593Z,19.04
2018-07-24T02:17:15.595Z,19.09
2018-07-24T02:18:15.594Z,19.00
2018-07-24T02:19:15.597Z,19.09
2018-07-24T02:20:15.599Z,18.99
2018-07-24T02:21:15.603Z,19.02
2018-07-24T02:22:15.602Z,18.88
2018-07-24T02:23:15.606Z,18.96
2018-07-24T02:24:15.606Z,19.02
2018-07-24T02:25:15.609Z,18.96
2018-07-24T02:26:15.610Z,18.92
2018-07-24T02:27:15.612Z,18.93
2018-07-24T02:28:15.613Z,19.02
2018-07-24T02:29:15.615Z,18.90
2018-07-24T02:30:15.617Z,18.95
2018-07-24T02:31:15.621Z,18.95
2018-07-24T02:32:15.653Z,18.93
2018-07-24T02:33:15.630Z,18.96
2018-07-24T02:34:15.637Z,18.99
2018-07-24T02:35:15.625Z,18.93
2018-07-24T02:36:15.630Z,18.93
2018-07-24T02:37:15.641Z,18.93
2018-07-24T02:38:15.637Z,18.96
2018-07-24T02:39:15.634Z,18.98
2018-07-24T02:40:15.637Z,18.95
2018-07-24T02:41:15.638Z,18.86
2018-07-24T02:42:15.641Z,18.99
2018-07-24T02:43:15.641Z,18.86
2018-07-24T02:44:15.643Z,18.88
2018-07-24T02:45:15.647Z,18.88
2018-07-24T02:46:15.646Z,18.89
2018-07-24T02:47:15.650Z,18.89
2018-07-24T02:48:15.650Z,18.84
2018-07-24T02:49:15.651Z,18.84
2018-07-24T02:50:15.655Z,18.78
2018-07-24T02:51:15.655Z,18.83
2018-07-24T02:52:15.660Z,18.78
2018-07-24T02:53:15.657Z,18.86
2018-07-24T02:54:15.662Z,18.73
2018-07-24T02:55:15.661Z,18.77
2018-07-24T02:56:15.663Z,18.77
2018-07-24T02:57:15.676Z,18.77
2018-07-24T02:58:15.669Z,18.75
2018-07-24T02:59:15.668Z,18.75
2018-07-24T03:00:15.669Z,18.73
2018-07-24T03:01:15.673Z,18.74
2018-07-24T03:02:15.673Z,18.71
2018-07-24T03:03:15.675Z,18.70
2018-07-24T03:04:15.676Z,18.70
2018-07-24T03:05:15.678Z,18.68
2018-07-24T03:06:15.679Z,18.65
2018-07-24T03:07:15.683Z,18.65
2018-07-24T03:08:15.693Z,18.59
2018-07-24T03:09:15.683Z,18.63
2018-07-24T03:10:15.694Z,18.68
2018-07-24T03:11:15.690Z,18.62
2018-07-24T03:12:15.692Z,18.58
2018-07-24T03:13:15.691Z,18.58
2018-07-24T03:14:15.695Z,18.56
2018-07-24T03:15:15.696Z,18.58
2018-07-24T03:16:15.750Z,18.55
2018-07-24T03:17:15.696Z,18.55
2018-07-24T03:18:36.708Z,18.60
2018-07-24T03:19:15.701Z,18.56
2018-07-24T03:20:15.702Z,18.56
2018-07-24T03:21:15.704Z,18.53
2018-07-24T03:22:15.713Z,18.53
2018-07-24T03:23:15.708Z,18.55
2018-07-24T03:24:15.713Z,18.52
2018-07-24T03:25:15.712Z,18.50
2018-07-24T03:26:15.712Z,18.52
2018-07-24T03:27:15.712Z,18.56
2018-07-24T03:28:15.717Z,18.47
2018-07-24T03:29:15.717Z,18.44
2018-07-24T03:30:15.718Z,18.45
2018-07-24T03:31:15.720Z,18.49
2018-07-24T03:32:15.723Z,18.53
2018-07-24T03:33:15.724Z,18.49
2018-07-24T03:34:15.725Z,18.53
2018-07-24T03:35:15.763Z,18.56
2018-07-24T03:36:15.727Z,18.53
2018-07-24T03:37:15.727Z,18.55
2018-07-24T03:38:15.729Z,18.52
2018-07-24T03:39:15.733Z,18.55
2018-07-24T03:40:15.733Z,18.55
2018-07-24T03:41:15.735Z,18.62
2018-07-24T03:42:15.735Z,18.62
2018-07-24T03:43:15.741Z,18.58
2018-07-24T03:44:15.739Z,18.65
2018-07-24T03:45:15.743Z,18.70
2018-07-24T03:46:15.743Z,18.68
2018-07-24T03:47:15.744Z,18.68
2018-07-24T03:48:15.744Z,18.73
2018-07-24T03:49:15.746Z,18.56
2018-07-24T03:50:15.749Z,18.65
2018-07-24T03:51:15.756Z,18.62
2018-07-24T03:52:15.751Z,18.73
2018-07-24T03:53:15.755Z,18.58
2018-07-24T03:54:15.754Z,18.56
2018-07-24T03:55:15.756Z,18.59
2018-07-24T03:56:15.757Z,18.56
2018-07-24T03:57:15.761Z,18.55
2018-07-24T03:58:15.767Z,18.55
2018-07-24T03:59:15.762Z,18.59
2018-07-24T04:00:15.764Z,18.52
2018-07-24T04:01:15.808Z,18.53
2018-07-24T04:02:15.798Z,18.58
2018-07-24T04:03:15.769Z,18.53
2018-07-24T04:04:15.771Z,18.56
2018-07-24T04:05:15.770Z,18.56
2018-07-24T04:06:15.775Z,18.47
2018-07-24T04:07:15.775Z,18.56
2018-07-24T04:08:15.778Z,18.56
2018-07-24T04:09:15.780Z,18.56
2018-07-24T04:10:15.784Z,18.50
2018-07-24T04:11:15.780Z,18.59
2018-07-24T04:12:15.783Z,18.53
2018-07-24T04:13:15.782Z,18.59
2018-07-24T04:14:15.828Z,18.59
2018-07-24T04:15:15.792Z,18.55
2018-07-24T04:16:15.789Z,18.60
2018-07-24T04:17:15.788Z,18.59
2018-07-24T04:18:15.789Z,18.63
2018-07-24T04:19:15.801Z,18.62
2018-07-24T04:20:15.794Z,18.63
2018-07-24T04:21:15.893Z,18.58
2018-07-24T04:22:15.830Z,18.70
2018-07-24T04:23:15.800Z,18.56
2018-07-24T04:24:15.803Z,18.63
2018-07-24T04:25:15.802Z,18.60
2018-07-24T04:26:15.802Z,18.55
2018-07-24T04:27:16.489Z,18.63
2018-07-24T04:28:15.979Z,18.73
2018-07-24T04:29:15.811Z,18.70
2018-07-24T04:30:15.814Z,18.70
2018-07-24T04:31:15.811Z,18.70
2018-07-24T04:32:15.815Z,18.77
2018-07-24T04:33:15.816Z,18.75
2018-07-24T04:34:15.818Z,18.77
2018-07-24T04:35:15.818Z,18.75
2018-07-24T04:36:15.821Z,18.75
2018-07-24T04:37:15.820Z,18.81
2018-07-24T04:38:15.822Z,18.83
2018-07-24T04:39:15.823Z,18.78
2018-07-24T04:40:15.848Z,18.83
2018-07-24T04:41:15.903Z,18.90
2018-07-24T04:42:15.830Z,18.95
2018-07-24T04:43:15.830Z,18.95
2018-07-24T04:44:15.832Z,19.08
2018-07-24T04:45:15.837Z,19.09
2018-07-24T04:46:15.834Z,19.12
2018-07-24T04:47:15.835Z,19.14
2018-07-24T04:48:15.840Z,19.08
2018-07-24T04:49:15.840Z,19.09
2018-07-24T04:50:15.840Z,19.26
2018-07-24T04:51:15.843Z,19.27
2018-07-24T04:52:15.845Z,19.33
2018-07-24T04:53:15.845Z,19.37
2018-07-24T04:54:15.848Z,19.39
2018-07-24T04:55:15.849Z,19.47
2018-07-24T04:56:15.854Z,19.54
2018-07-24T04:57:15.852Z,19.66
2018-07-24T04:58:15.855Z,19.66
2018-07-24T04:59:15.857Z,19.79
2018-07-24T05:00:15.861Z,19.71
2018-07-24T05:01:15.905Z,19.86
2018-07-24T05:02:15.862Z,19.86
2018-07-24T05:03:15.872Z,19.88
2018-07-24T05:04:15.870Z,19.91
2018-07-24T05:05:15.867Z,19.95
2018-07-24T05:06:15.870Z,19.99
2018-07-24T05:07:15.872Z,20.06
2018-07-24T05:08:15.875Z,20.04
2018-07-24T05:09:15.887Z,20.22
2018-07-24T05:10:15.932Z,20.18
2018-07-24T05:11:15.882Z,20.37
2018-07-24T05:12:15.885Z,20.55
2018-07-24T05:13:15.886Z,20.90
2018-07-24T05:14:15.887Z,21.09
2018-07-24T05:15:15.931Z,21.14
2018-07-24T05:16:15.893Z,21.24
2018-07-24T05:17:15.926Z,21.45
2018-07-24T05:18:15.902Z,21.88
2018-07-24T05:19:15.899Z,21.96
2018-07-24T05:20:15.902Z,22.00
2018-07-24T05:21:15.914Z,21.99
2018-07-24T05:22:15.911Z,22.25
2018-07-24T05:23:15.910Z,22.39
2018-07-24T05:24:15.914Z,22.75
2018-07-24T05:25:15.916Z,22.91
2018-07-24T05:26:15.919Z,22.99
2018-07-24T05:27:15.922Z,22.87
2018-07-24T05:28:15.925Z,22.76
2018-07-24T05:29:15.928Z,22.69
2018-07-24T05:30:15.932Z,22.78
2018-07-24T05:31:15.934Z,23.00
2018-07-24T05:32:15.999Z,23.21
2018-07-24T05:33:15.991Z,23.31
2018-07-24T05:34:15.946Z,23.44
2018-07-24T05:35:15.949Z,23.34
2018-07-24T05:36:15.954Z,23.21
2018-07-24T05:37:15.955Z,23.02
2018-07-24T05:38:15.961Z,22.76
2018-07-24T05:39:15.966Z,22.60
2018-07-24T05:40:15.969Z,22.41
2018-07-24T05:41:15.974Z,22.26
2018-07-24T05:42:15.975Z,22.25
2018-07-24T05:43:15.981Z,22.11
2018-07-24T05:44:15.987Z,22.00
2018-07-24T05:45:15.989Z,22.02
2018-07-24T05:46:16.001Z,22.10
2018-07-24T05:47:16.005Z,22.11
2018-07-24T05:48:15.998Z,22.14
2018-07-24T05:49:16.001Z,22.23
2018-07-24T05:50:16.008Z,22.11
2018-07-24T05:51:16.009Z,22.17
2018-07-24T05:52:16.014Z,22.00
2018-07-24T05:53:16.018Z,22.11
2018-07-24T05:54:16.020Z,22.11
2018-07-24T05:55:16.024Z,22.11
2018-07-24T05:56:16.028Z,22.14
2018-07-24T05:57:16.031Z,22.29
2018-07-24T05:58:16.034Z,22.18
2018-07-24T05:59:16.048Z,22.36
2018-07-24T06:00:16.042Z,22.45
2018-07-24T06:01:16.044Z,22.59
2018-07-24T06:02:16.058Z,22.98
2018-07-24T06:03:16.052Z,23.20
2018-07-24T06:04:16.056Z,23.47
2018-07-24T06:05:16.061Z,23.69
2018-07-24T06:06:16.063Z,23.88
2018-07-24T06:07:16.123Z,24.11
2018-07-24T06:08:16.073Z,24.20
2018-07-24T06:09:16.073Z,23.95
2018-07-24T06:10:16.077Z,23.66
2018-07-24T06:11:16.081Z,23.56
2018-07-24T06:12:16.086Z,23.47
2018-07-24T06:13:16.129Z,23.48
2018-07-24T06:14:16.096Z,23.44
2018-07-24T06:15:16.099Z,23.37
2018-07-24T06:16:16.115Z,23.39
2018-07-24T06:17:16.123Z,23.34
2018-07-24T06:18:16.110Z,23.34
2018-07-24T06:19:16.112Z,23.46
2018-07-24T06:20:16.122Z,23.46
2018-07-24T06:21:16.122Z,23.51
2018-07-24T06:22:16.125Z,23.54
2018-07-24T06:23:16.128Z,23.58
2018-07-24T06:24:16.134Z,23.54
2018-07-24T06:25:16.145Z,23.54
2018-07-24T06:26:16.140Z,23.51
2018-07-24T06:27:16.148Z,23.54
2018-07-24T06:28:16.151Z,23.48
2018-07-24T06:29:16.198Z,23.51
2018-07-24T06:30:16.158Z,23.59
2018-07-24T06:31:16.163Z,23.59
2018-07-24T06:32:16.165Z,23.54
2018-07-24T06:33:16.169Z,23.61
2018-07-24T06:34:16.173Z,23.54
2018-07-24T06:35:16.179Z,23.51
2018-07-24T06:36:16.183Z,23.58
2018-07-24T06:37:16.185Z,23.63
2018-07-24T06:38:16.189Z,23.63
2018-07-24T06:39:16.251Z,23.59
2018-07-24T06:40:16.198Z,23.50
2018-07-24T06:41:16.200Z,23.55
2018-07-24T06:42:16.206Z,23.51
2018-07-24T06:43:16.210Z,23.55
2018-07-24T06:44:16.245Z,23.47
2018-07-24T06:45:16.216Z,23.47
2018-07-24T06:46:16.222Z,23.48
2018-07-24T06:47:16.225Z,23.55
2018-07-24T06:48:16.235Z,23.62
2018-07-24T06:49:16.236Z,23.63
2018-07-24T06:50:16.241Z,23.65
2018-07-24T06:51:16.303Z,23.68
2018-07-24T06:52:16.251Z,23.73
2018-07-24T06:53:16.250Z,23.73
2018-07-24T06:54:16.266Z,23.78
2018-07-24T06:55:16.294Z,23.76
2018-07-24T06:56:16.262Z,23.76
2018-07-24T06:57:16.277Z,23.69
2018-07-24T06:58:16.271Z,23.66
2018-07-24T06:59:16.274Z,23.59
2018-07-24T07:00:16.292Z,23.65
2018-07-24T07:01:16.285Z,23.65
2018-07-24T07:02:16.349Z,23.66
2018-07-24T07:03:16.329Z,23.62
2018-07-24T07:04:16.305Z,23.61
2018-07-24T07:05:16.344Z,23.58
2018-07-24T07:06:16.304Z,23.56
2018-07-24T07:07:16.307Z,23.56
2018-07-24T07:08:16.311Z,23.56
2018-07-24T07:09:16.317Z,23.54
2018-07-24T07:10:16.412Z,23.61
2018-07-24T07:11:16.324Z,23.58
2018-07-24T07:12:16.328Z,23.51
2018-07-24T07:13:16.400Z,23.55
2018-07-24T07:14:16.339Z,23.63
2018-07-24T07:15:16.344Z,23.51
2018-07-24T07:16:16.390Z,23.55
2018-07-24T07:17:16.375Z,23.54
2018-07-24T07:18:16.354Z,23.59
2018-07-24T07:19:16.403Z,23.58
2018-07-24T07:20:16.358Z,23.55
2018-07-24T07:21:16.362Z,23.58
2018-07-24T07:22:16.365Z,23.65
2018-07-24T07:23:16.401Z,23.58
2018-07-24T07:24:16.378Z,23.71
2018-07-24T07:25:16.396Z,23.68
2018-07-24T07:26:16.456Z,23.65
2018-07-24T07:27:16.400Z,23.71
2018-07-24T07:28:16.397Z,23.73
2018-07-24T07:29:16.422Z,23.68
2018-07-24T07:30:16.411Z,23.73
2018-07-24T07:31:16.408Z,23.76
2018-07-24T07:32:16.452Z,23.73
2018-07-24T07:33:16.425Z,23.87
2018-07-24T07:34:16.415Z,23.87
2018-07-24T07:35:16.422Z,23.80
2018-07-24T07:36:16.421Z,23.84
2018-07-24T07:37:16.431Z,23.93
2018-07-24T07:38:16.429Z,23.93
2018-07-24T07:39:16.475Z,23.91
2018-07-24T07:40:16.438Z,23.88
2018-07-24T07:41:16.443Z,23.92
2018-07-24T07:42:16.446Z,23.87
2018-07-24T07:43:16.452Z,23.95
2018-07-24T07:44:16.461Z,23.98
2018-07-24T07:45:16.461Z,23.96
2018-07-24T07:46:16.462Z,24.05
2018-07-24T07:47:16.467Z,24.03
2018-07-24T07:48:16.471Z,24.06
2018-07-24T07:49:16.474Z,24.14
2018-07-24T07:50:16.478Z,24.16
2018-07-24T07:51:16.489Z,24.20
2018-07-24T07:52:16.487Z,24.13
2018-07-24T07:53:16.491Z,24.14
2018-07-24T07:54:16.502Z,24.16
2018-07-24T07:55:16.501Z,24.23
2018-07-24T07:56:16.507Z,24.26
2018-07-24T07:57:16.514Z,24.28
2018-07-24T07:58:16.523Z,24.21
2018-07-24T07:59:16.517Z,24.29
2018-07-24T08:00:16.522Z,24.33
2018-07-24T08:01:16.524Z,24.38
2018-07-24T08:02:16.529Z,24.43
2018-07-24T08:03:16.536Z,24.39
2018-07-24T08:04:16.589Z,24.43
2018-07-24T08:05:16.552Z,24.45
2018-07-24T08:06:16.548Z,24.45
2018-07-24T08:07:16.550Z,24.50
2018-07-24T08:08:16.650Z,24.48
2018-07-24T08:09:16.564Z,24.53
2018-07-24T08:10:16.570Z,24.55
2018-07-24T08:11:16.567Z,24.57
2018-07-24T08:12:16.625Z,24.63
2018-07-24T08:13:16.574Z,24.66
2018-07-24T08:14:16.647Z,24.66
2018-07-24T08:15:16.588Z,24.74
2018-07-24T08:16:16.589Z,24.73
2018-07-24T08:17:16.597Z,24.78
2018-07-24T08:18:16.598Z,24.88
2018-07-24T08:19:16.632Z,24.80
2018-07-24T08:20:16.607Z,24.78
2018-07-24T08:21:16.620Z,24.81
2018-07-24T08:22:16.652Z,24.91
2018-07-24T08:23:16.621Z,24.88
2018-07-24T08:24:16.624Z,25.01
2018-07-24T08:25:16.626Z,24.98
2018-07-24T08:26:16.631Z,25.10
2018-07-24T08:27:16.635Z,25.16
2018-07-24T08:28:16.752Z,25.18
2018-07-24T08:29:16.648Z,25.26
2018-07-24T08:30:16.649Z,25.28
2018-07-24T08:31:16.654Z,25.26
2018-07-24T08:32:16.661Z,25.28
2018-07-24T08:33:16.663Z,25.44
2018-07-24T08:34:16.668Z,25.53
2018-07-24T08:35:16.671Z,25.51
2018-07-24T08:36:16.676Z,25.58
2018-07-24T08:37:16.680Z,25.53
2018-07-24T08:38:16.752Z,25.59
2018-07-24T08:39:16.688Z,25.65
2018-07-24T08:40:16.694Z,25.65
2018-07-24T08:41:16.701Z,25.65
2018-07-24T08:42:16.704Z,25.58
2018-07-24T08:43:16.708Z,25.70
2018-07-24T08:44:16.712Z,25.69
2018-07-24T08:45:16.719Z,25.80
2018-07-24T08:46:16.723Z,25.88
2018-07-24T08:47:16.724Z,25.95
2018-07-24T08:48:16.736Z,26.25
2018-07-24T08:49:16.841Z,27.14
2018-07-24T08:50:16.778Z,28.27
2018-07-24T08:51:16.795Z,29.39
2018-07-24T08:52:16.754Z,30.40
2018-07-24T08:53:17.013Z,31.20
2018-07-24T08:54:16.975Z,31.92
2018-07-24T08:55:17.053Z,32.55
2018-07-24T08:56:16.782Z,33.31
2018-07-24T08:57:16.785Z,33.76
2018-07-24T08:58:16.787Z,34.39
2018-07-24T08:59:16.791Z,34.97
2018-07-24T09:00:16.799Z,35.53
2018-07-24T09:01:16.805Z,36.01
2018-07-24T09:02:16.811Z,36.01
2018-07-24T09:03:16.879Z,36.24
2018-07-24T09:04:16.893Z,36.57
2018-07-24T09:05:16.835Z,36.70
2018-07-24T09:06:16.843Z,37.07
2018-07-24T09:07:16.857Z,36.93
2018-07-24T09:08:16.957Z,37.14
2018-07-24T09:09:16.868Z,37.37
2018-07-24T09:10:16.932Z,37.65
2018-07-24T09:11:17.074Z,37.83
2018-07-24T09:12:16.901Z,38.14
2018-07-24T09:13:16.903Z,38.46
2018-07-24T09:14:16.917Z,38.61
2018-07-24T09:15:16.926Z,38.99
2018-07-24T09:16:16.934Z,39.09
2018-07-24T09:17:16.943Z,39.31
2018-07-24T09:18:16.953Z,39.67
2018-07-24T09:19:16.965Z,40.00
2018-07-24T09:20:17.006Z,40.46
2018-07-24T09:21:16.996Z,40.54
2018-07-24T09:22:16.995Z,40.72
2018-07-24T09:23:17.006Z,40.92
2018-07-24T09:24:17.031Z,41.25
2018-07-24T09:25:17.029Z,41.50
2018-07-24T09:26:17.042Z,41.41
2018-07-24T09:27:17.054Z,41.37
2018-07-24T09:28:17.065Z,41.41
2018-07-24T09:29:17.076Z,41.49
2018-07-24T09:30:17.089Z,41.63
2018-07-24T09:31:17.122Z,42.07
2018-07-24T09:32:17.116Z,42.14
2018-07-24T09:33:17.127Z,42.19
2018-07-24T09:34:17.141Z,42.33
2018-07-24T09:35:17.152Z,42.36
2018-07-24T09:36:17.165Z,42.47
2018-07-24T09:37:17.178Z,42.82
2018-07-24T09:38:17.267Z,42.94
2018-07-24T09:39:17.204Z,43.08
2018-07-24T09:40:17.223Z,43.28
2018-07-24T09:41:17.232Z,43.65
2018-07-24T09:42:17.246Z,43.87
2018-07-24T09:43:17.258Z,44.02
2018-07-24T09:44:17.274Z,44.24
2018-07-24T09:45:17.303Z,44.51
2018-07-24T09:46:17.303Z,44.03
2018-07-24T09:47:17.317Z,43.94
2018-07-24T09:48:17.339Z,43.74
2018-07-24T09:49:17.346Z,43.60
2018-07-24T09:50:17.362Z,43.48
2018-07-24T09:51:17.377Z,43.65
2018-07-24T09:52:17.393Z,43.45
2018-07-24T09:53:17.414Z,43.72
2018-07-24T09:54:17.430Z,43.74
2018-07-24T09:55:17.436Z,43.77
2018-07-24T09:56:17.457Z,44.11
2018-07-24T09:57:17.467Z,44.32
2018-07-24T09:58:17.487Z,44.61
2018-07-24T09:59:17.517Z,44.79
2018-07-24T10:00:17.516Z,44.69
2018-07-24T10:01:17.550Z,44.93
2018-07-24T10:02:17.548Z,45.10
2018-07-24T10:03:17.579Z,44.88
2018-07-24T10:04:17.621Z,44.93
2018-07-24T10:05:17.650Z,44.45
2018-07-24T10:06:17.612Z,43.65
2018-07-24T10:07:17.627Z,42.44
2018-07-24T10:08:17.652Z,41.65
2018-07-24T10:09:17.660Z,41.18
2018-07-24T10:10:17.674Z,41.04
2018-07-24T10:11:17.714Z,40.81
2018-07-24T10:12:17.750Z,40.20
2018-07-24T10:13:17.839Z,39.51
2018-07-24T10:14:17.786Z,39.03
2018-07-24T10:15:17.758Z,38.74
2018-07-24T10:16:17.765Z,38.42
2018-07-24T10:17:17.780Z,38.31
2018-07-24T10:18:17.793Z,38.19
2018-07-24T10:19:17.808Z,38.14
2018-07-24T10:20:17.820Z,37.84
2018-07-24T10:21:17.833Z,37.60
2018-07-24T10:22:17.924Z,37.08
2018-07-24T10:23:17.856Z,36.36
2018-07-24T10:24:17.883Z,36.00
2018-07-24T10:25:17.879Z,35.58
2018-07-24T10:26:17.894Z,35.36
2018-07-24T10:27:17.908Z,35.24
2018-07-24T10:28:17.914Z,35.76
2018-07-24T10:29:17.926Z,36.52
2018-07-24T10:30:18.059Z,37.42
2018-07-24T10:31:17.949Z,38.36
2018-07-24T10:32:17.962Z,39.19
2018-07-24T10:33:17.972Z,39.99
2018-07-24T10:34:17.980Z,40.47
2018-07-24T10:35:17.992Z,40.80
2018-07-24T10:36:18.006Z,41.37
2018-07-24T10:37:18.023Z,41.80
2018-07-24T10:38:18.040Z,42.06
2018-07-24T10:39:18.044Z,42.04
2018-07-24T10:40:18.671Z,41.78
2018-07-24T10:41:18.074Z,41.12
2018-07-24T10:42:18.092Z,41.43
2018-07-24T10:43:18.100Z,41.72
2018-07-24T10:44:18.115Z,42.02
2018-07-24T10:45:18.132Z,42.44
2018-07-24T10:46:18.142Z,42.92
2018-07-24T10:47:18.161Z,43.20
2018-07-24T10:48:18.185Z,43.08
2018-07-24T10:49:18.229Z,42.74
2018-07-24T10:50:18.206Z,42.50
2018-07-24T10:51:18.220Z,42.53
2018-07-24T10:52:18.236Z,42.76
2018-07-24T10:53:18.252Z,42.85
2018-07-24T10:54:18.266Z,42.91
2018-07-24T10:55:18.283Z,43.18
2018-07-24T10:56:18.299Z,43.67
2018-07-24T10:57:18.316Z,43.65
2018-07-24T10:58:18.330Z,43.87
2018-07-24T10:59:18.349Z,44.27
2018-07-24T11:00:18.366Z,44.45
2018-07-24T11:01:18.386Z,44.34
2018-07-24T11:02:18.405Z,44.61
2018-07-24T11:03:18.414Z,44.65
2018-07-24T11:04:18.431Z,45.08
2018-07-24T11:05:18.478Z,45.03
2018-07-24T11:06:18.470Z,44.40
2018-07-24T11:07:18.484Z,44.17
2018-07-24T11:08:18.594Z,44.29
2018-07-24T11:09:18.519Z,44.49
2018-07-24T11:10:18.547Z,44.55
2018-07-24T11:11:18.553Z,44.79
2018-07-24T11:12:18.576Z,45.21
2018-07-24T11:13:18.588Z,45.62
2018-07-24T11:14:18.606Z,45.47
2018-07-24T11:15:18.625Z,44.93
2018-07-24T11:16:18.680Z,44.24
2018-07-24T11:17:18.661Z,43.68
2018-07-24T11:18:18.683Z,43.39
2018-07-24T11:19:18.697Z,43.38
2018-07-24T11:20:18.717Z,43.26
2018-07-24T11:21:18.745Z,43.38
2018-07-24T11:22:18.842Z,43.36
2018-07-24T11:23:18.858Z,43.19
2018-07-24T11:24:18.790Z,42.81
2018-07-24T11:25:18.804Z,43.00
2018-07-24T11:26:18.823Z,43.30
2018-07-24T11:27:18.846Z,43.60
2018-07-24T11:28:18.900Z,43.61
2018-07-24T11:29:18.881Z,43.89
2018-07-24T11:30:18.893Z,44.26
2018-07-24T11:31:18.979Z,44.20
2018-07-24T11:32:19.099Z,44.21
2018-07-24T11:33:18.983Z,43.99
2018-07-24T11:34:18.972Z,43.62
2018-07-24T11:35:18.981Z,43.94
2018-07-24T11:36:19.085Z,44.32
2018-07-24T11:37:19.017Z,44.90
2018-07-24T11:38:19.037Z,45.22
2018-07-24T11:39:19.055Z,45.87
2018-07-24T11:40:19.072Z,46.41
2018-07-24T11:41:19.090Z,46.96
2018-07-24T11:42:19.109Z,47.20
2018-07-24T11:43:19.127Z,46.86
2018-07-24T11:44:19.147Z,46.26
2018-07-24T11:45:19.165Z,45.78
2018-07-24T11:46:19.184Z,45.88
2018-07-24T11:47:19.203Z,45.80
2018-07-24T11:48:19.248Z,45.28
2018-07-24T11:49:19.252Z,44.44
2018-07-24T11:50:19.267Z,44.40
2018-07-24T11:51:19.279Z,44.72
2018-07-24T11:52:19.299Z,44.71
2018-07-24T11:53:19.316Z,44.72
2018-07-24T11:54:19.335Z,44.97
2018-07-24T11:55:19.409Z,44.45
2018-07-24T11:56:19.379Z,44.27
2018-07-24T11:57:19.407Z,44.30
2018-07-24T11:58:19.411Z,44.05
2018-07-24T11:59:19.427Z,44.22
2018-07-24T12:00:19.446Z,44.64
2018-07-24T12:01:19.463Z,44.86
2018-07-24T12:02:19.489Z,45.43
2018-07-24T12:03:19.504Z,45.75
2018-07-24T12:04:19.523Z,45.96
2018-07-24T12:05:19.547Z,46.29
2018-07-24T12:06:19.560Z,46.41
2018-07-24T12:07:19.579Z,46.62
2018-07-24T12:08:19.597Z,46.70
2018-07-24T12:09:19.614Z,47.03
2018-07-24T12:10:19.634Z,47.44
2018-07-24T12:11:19.657Z,47.83
2018-07-24T12:12:19.674Z,47.98
2018-07-24T12:13:19.702Z,48.07
2018-07-24T12:14:19.717Z,47.96
2018-07-24T12:15:19.735Z,47.52
2018-07-24T12:16:19.757Z,46.98
2018-07-24T12:17:19.777Z,46.50
2018-07-24T12:18:19.943Z,45.89
2018-07-24T12:19:19.825Z,45.89
2018-07-24T12:20:19.834Z,45.85
2018-07-24T12:21:19.853Z,45.85
2018-07-24T12:22:19.872Z,46.20
2018-07-24T12:23:19.892Z,46.69
2018-07-24T12:24:19.915Z,47.06
2018-07-24T12:25:19.932Z,46.57
2018-07-24T12:26:19.952Z,45.85
2018-07-24T12:27:19.975Z,45.28
2018-07-24T12:28:19.989Z,44.68
2018-07-24T12:29:20.011Z,44.10
2018-07-24T12:30:20.029Z,44.08
2018-07-24T12:31:20.077Z,43.89
2018-07-24T12:32:20.120Z,43.91
2018-07-24T12:33:20.179Z,43.84
2018-07-24T12:34:20.121Z,43.83
2018-07-24T12:35:20.121Z,43.89
2018-07-24T12:36:20.156Z,44.44
2018-07-24T12:37:20.166Z,44.61
2018-07-24T12:38:20.182Z,44.81
2018-07-24T12:39:20.194Z,44.76
2018-07-24T12:40:20.214Z,44.83
2018-07-24T12:41:20.238Z,44.90
2018-07-24T12:42:20.249Z,44.81
2018-07-24T12:43:20.267Z,44.44
2018-07-24T12:44:20.285Z,43.84
2018-07-24T12:45:20.302Z,43.54
2018-07-24T12:46:20.320Z,43.24
2018-07-24T12:47:20.339Z,43.24
2018-07-24T12:48:20.356Z,42.94
2018-07-24T12:49:20.382Z,43.06
2018-07-24T12:50:20.392Z,43.38
2018-07-24T12:51:20.408Z,43.80
2018-07-24T12:52:20.508Z,44.06